createdAt,value
2023-04-15T14:36:05.146Z,102194.13
2023-04-15T14:38:33.700Z,102196.48
2023-04-15T14:41:01.082Z,102204.58
2023-04-15T14:43:27.655Z,102209.23
2023-04-15T14:45:55.352Z,102207.27
2023-04-15T14:48:22.140Z,102208.35
2023-04-15T14:50:48.865Z,102214.80
2023-04-15T14:53:16.124Z,102223.80
2023-04-15T14:55:43.779Z,102221.11
2023-04-15T15:00:19.136Z,102220.38
2023-04-15T15:02:50.618Z,102223.61
2023-04-15T15:05:18.651Z,102229.73
2023-04-15T15:07:47.036Z,102229.54
2023-04-15T15:10:14.879Z,102227.21
2023-04-15T15:13:42.420Z,102229.87
2023-04-15T15:18:48.355Z,102234.34
2023-04-15T15:21:16.307Z,102234.48
2023-04-15T15:24:03.427Z,102233.23
2023-04-15T15:26:31.734Z,102236.23
2023-04-15T15:28:59.749Z,102234.98
2023-04-15T15:31:27.841Z,102238.21
2023-04-15T15:33:55.764Z,102243.23
2023-04-15T15:36:23.564Z,102246.11
2023-04-15T15:38:52.110Z,102250.59
2023-04-15T15:41:19.928Z,102257.95
2023-04-15T15:43:47.983Z,102261.73
2023-04-15T15:46:16.401Z,102267.50
2023-04-15T15:48:44.773Z,102266.06
2023-04-15T15:51:12.811Z,102265.86
2023-04-15T15:53:40.880Z,102268.92
2023-04-15T15:56:08.872Z,102273.59
2023-04-15T15:58:37.040Z,102272.85
2023-04-15T16:01:06.035Z,102269.63
2023-04-15T16:03:34.318Z,102273.31
2023-04-15T16:06:02.419Z,102270.38
2023-04-15T16:08:30.753Z,102274.67
2023-04-15T16:10:58.725Z,102274.14
2023-04-15T16:13:26.575Z,102281.54
2023-04-15T16:15:54.586Z,102286.58
2023-04-15T16:18:22.528Z,102283.19
2023-04-15T16:20:50.476Z,102287.17
2023-04-15T16:23:19.619Z,102293.69
2023-04-15T16:25:48.376Z,102298.38
2023-04-15T16:28:25.714Z,102304.69
2023-04-15T16:30:56.295Z,102309.20
2023-04-15T16:33:24.371Z,102307.60
2023-04-15T16:35:52.548Z,102305.63
2023-04-15T16:38:20.932Z,102308.33
2023-04-15T16:40:48.792Z,102309.95
2023-04-15T16:43:16.894Z,102312.13
2023-04-15T16:45:45.581Z,102317.17
2023-04-15T16:48:13.824Z,102320.77
2023-04-15T16:50:41.823Z,102323.84
2023-04-15T16:53:10.485Z,102322.95
2023-04-15T16:55:39.840Z,102322.41
2023-04-15T16:58:08.529Z,102327.64
2023-04-15T17:00:37.162Z,102330.89
2023-04-15T17:03:06.405Z,102332.52
2023-04-15T17:05:34.795Z,102335.05
2023-04-15T17:08:02.775Z,102338.10
2023-04-15T17:10:31.476Z,102339.01
2023-04-15T17:13:00.160Z,102343.69
2023-04-15T17:15:28.509Z,102346.92
2023-04-15T18:20:36.475Z,102382.56
2023-04-15T18:23:04.503Z,102386.02
2023-04-15T18:25:34.067Z,102388.77
2023-04-15T18:28:02.040Z,102384.83
2023-04-15T18:30:29.928Z,102382.10
2023-04-15T18:32:57.823Z,102383.31
2023-04-15T18:35:25.942Z,102389.18
2023-04-15T18:37:53.926Z,102395.02
2023-04-15T18:40:21.733Z,102393.11
2023-04-15T18:42:49.964Z,102395.15
2023-04-15T18:56:45.052Z,102402.02
2023-04-15T18:59:28.418Z,102396.56
2023-04-15T19:01:59.284Z,102394.81
2023-04-15T19:04:29.441Z,102394.99
2023-04-15T19:06:59.011Z,102397.88
2023-04-15T19:09:28.994Z,102404.52
2023-04-15T19:13:49.376Z,102411.86
2023-04-15T19:16:17.565Z,102416.91
2023-04-15T19:18:45.797Z,102422.29
2023-04-15T19:21:14.176Z,102424.44
2023-04-15T19:23:45.601Z,102427.13
2023-04-15T19:26:13.671Z,102431.64
2023-04-15T19:28:41.873Z,102431.81
2023-04-15T19:31:09.899Z,102431.99
2023-04-15T19:33:38.444Z,102435.42
2023-04-15T19:36:07.453Z,102435.80
2023-04-15T19:38:36.176Z,102439.20
2023-04-15T19:41:04.399Z,102437.59
2023-04-15T19:43:32.990Z,102441.19
2023-04-15T19:46:01.175Z,102442.10
2023-04-15T19:48:29.428Z,102446.05
2023-04-15T19:50:57.890Z,102446.44
2023-04-15T19:53:25.875Z,102448.58
2023-04-15T19:55:53.840Z,102450.38
2023-04-15T19:58:21.893Z,102455.79
2023-04-15T20:00:49.800Z,102453.81
2023-04-15T20:03:19.015Z,102456.86
2023-04-15T20:05:47.213Z,102459.21
2023-04-15T20:08:15.529Z,102461.73
2023-04-15T20:10:43.496Z,102471.62
2023-04-15T20:13:11.348Z,102475.04
2023-04-15T20:15:39.349Z,102482.77
2023-04-15T20:18:07.705Z,102486.16
2023-04-15T20:20:35.881Z,102488.84
2023-04-15T20:23:03.714Z,102492.98
2023-04-15T20:25:31.818Z,102496.38
2023-04-15T20:28:00.957Z,102502.30
2023-04-15T20:30:29.497Z,102502.67
2023-04-15T20:32:57.668Z,102505.00
2023-04-15T20:35:28.224Z,102505.91
2023-04-15T20:37:56.464Z,102506.25
2023-04-15T20:40:24.332Z,102498.91
2023-04-15T20:42:52.621Z,102508.05
2023-04-15T20:45:20.687Z,102511.46
2023-04-15T20:47:48.990Z,102511.81
2023-04-15T20:50:17.660Z,102516.49
2023-04-15T20:52:45.728Z,102523.47
2023-04-15T20:55:13.635Z,102521.48
2023-04-15T20:57:41.767Z,102518.98
2023-04-15T21:00:11.288Z,102522.02
2023-04-15T21:02:39.426Z,102518.06
2023-04-15T21:05:08.448Z,102519.50
2023-04-15T21:07:36.514Z,102520.56
2023-04-15T21:10:04.891Z,102522.71
2023-04-15T21:12:32.950Z,102526.84
2023-04-15T21:15:01.740Z,102529.34
2023-04-15T21:17:29.654Z,102526.81
2023-04-15T21:19:57.814Z,102536.13
2023-04-15T21:22:26.354Z,102538.46
2023-04-15T21:24:54.755Z,102542.02
2023-04-15T21:27:22.833Z,102541.12
2023-04-15T21:29:50.795Z,102543.23
2023-04-15T21:32:18.967Z,102543.03
2023-04-15T21:34:47.558Z,102548.41
2023-04-15T21:37:16.033Z,102551.80
2023-04-15T21:39:44.213Z,102557.89
2023-04-15T21:42:12.224Z,102560.91
2023-04-15T21:44:40.151Z,102562.52
2023-04-15T21:47:08.100Z,102565.19
2023-04-15T21:49:36.494Z,102566.25
2023-04-15T21:52:04.964Z,102564.45
2023-04-15T21:54:33.568Z,102559.23
2023-04-15T21:57:02.061Z,102563.88
2023-04-15T21:59:30.337Z,102568.70
2023-04-15T22:01:58.630Z,102574.96
2023-04-15T22:04:26.957Z,102575.12
2023-04-15T22:06:55.942Z,102570.81
2023-04-15T22:09:23.932Z,102570.98
2023-04-15T22:11:51.901Z,102571.85
2023-04-15T22:14:19.778Z,102570.75
2023-04-15T22:16:47.772Z,102566.98
2023-04-15T22:19:15.740Z,102564.11
2023-04-15T22:21:43.967Z,102559.44
2023-04-15T22:24:32.533Z,102561.73
2023-04-15T22:27:00.746Z,102559.93
2023-04-15T22:29:28.987Z,102568.34
2023-04-15T22:31:57.054Z,102574.42
2023-04-15T22:34:25.227Z,102576.89
2023-04-15T22:36:53.269Z,102582.25
2023-04-15T22:39:21.367Z,102587.26
2023-04-15T22:41:49.956Z,102592.61
2023-04-15T22:44:18.127Z,102599.77
2023-04-15T22:46:46.105Z,102604.22
2023-04-15T22:49:14.066Z,102607.95
2023-04-15T22:51:42.035Z,102599.87
2023-04-15T22:54:10.038Z,102605.23
2023-04-15T22:56:38.073Z,102602.54
2023-04-15T22:59:06.051Z,102599.12
2023-04-15T23:01:34.136Z,102590.34
2023-04-15T23:04:05.648Z,102591.20
2023-04-15T23:06:35.185Z,102589.20
2023-04-15T23:09:03.619Z,102585.95
2023-04-15T23:11:31.755Z,102592.73
2023-04-15T23:14:00.388Z,102591.83
2023-04-15T23:16:28.745Z,102599.34
2023-04-15T23:18:56.735Z,102602.00
2023-04-15T23:21:26.157Z,102604.66
2023-04-15T23:23:54.468Z,102605.54
2023-04-15T23:26:22.384Z,102605.88
2023-04-15T23:28:50.383Z,102611.23
2023-04-15T23:31:18.456Z,102613.35
2023-04-15T23:33:46.300Z,102611.18
2023-04-15T23:36:14.498Z,102615.48
2023-04-15T23:38:42.464Z,102614.92
2023-04-15T23:41:11.997Z,102605.77
2023-04-15T23:43:40.137Z,102597.01
2023-04-15T23:46:08.723Z,102592.16
2023-04-15T23:48:36.694Z,102590.70
2023-04-15T23:51:05.375Z,102590.86
2023-04-15T23:53:33.650Z,102597.13
2023-04-15T23:56:01.746Z,102603.55
2023-04-15T23:58:29.639Z,102606.75
